Time;durP1;ratioP1;P1;durP2;ratioP2;P2;SDS_P1;SDS_P2;PMS_P1;PMS_P2;Temp;Humidity;BMP_temperature;BMP_pressure;BME280_temperature;BME280_humidity;BME280_pressure;Samples;Min_cycle;Max_cycle;Signal;HPM_P1;HPM_P2
2022/01/10 00:02:26;;;;;;;;;;;;;;;;;;5073430;28;20054;-84
2022/01/10 00:04:53;;;;;;;;;;;;;;;;;;5073606;28;19985;-85
2022/01/10 00:07:20;;;;;;;;;;;;;;;;;;5073404;28;20458;-85
2022/01/10 00:09:47;;;;;;;;;;;;;;;;;;5073496;28;20054;-84
2022/01/10 00:12:14;;;;;;;;;;;;;;;;;;5073389;28;20001;-84
2022/01/10 00:14:41;;;;;;;;;;;;;;;;;;5073258;28;20066;-85
2022/01/10 00:17:08;;;;;;;;;;;;;;;;;;5073380;28;19982;-84
2022/01/10 00:19:35;;;;;;;;;;;;;;;;;;5073353;28;20438;-84
2022/01/10 00:22:02;;;;;;;;;;;;;;;;;;5073440;28;19947;-85
2022/01/10 00:24:29;;;;;;;;;;;;;;;;;;5073221;28;20037;-84
2022/01/10 00:26:56;;;;;;;;;;;;;;;;;;5073541;28;20041;-84
2022/01/10 00:29:23;;;;;;;;;;;;;;;;;;5073115;28;20009;-84
2022/01/10 00:31:50;;;;;;;;;;;;;;;;;;5073363;28;20005;-85
2022/01/10 00:34:17;;;;;;;;;;;;;;;;;;5073281;28;19971;-84
2022/01/10 00:36:44;;;;;;;;;;;;;;;;;;5073542;28;20379;-85
2022/01/10 00:39:11;;;;;;;;;;;;;;;;;;5073045;28;20000;-85
2022/01/10 00:41:38;;;;;;;;;;;;;;;;;;5073132;28;19954;-84
2022/01/10 00:44:05;;;;;;;;;;;;;;;;;;5073015;28;19948;-85
2022/01/10 00:46:32;;;;;;;;;;;;;;;;;;5072910;28;20386;-84
2022/01/10 00:48:59;;;;;;;;;;;;;;;;;;5075026;28;20022;-85
2022/01/10 00:51:26;;;;;;;;;;;;;;;;;;5076729;28;20381;-85
2022/01/10 00:53:53;;;;;;;;;;;;;;;;;;5076583;28;20073;-84
2022/01/10 00:56:20;;;;;;;;;;;;;;;;;;5076843;28;19950;-83
2022/01/10 00:58:47;;;;;;;;;;;;;;;;;;5076674;28;20005;-84
2022/01/10 01:01:14;;;;;;;;;;;;;;;;;;5076629;28;20030;-84
2022/01/10 01:03:41;;;;;;;;;;;;;;;;;;5076566;28;20042;-85
2022/01/10 01:06:10;;;;;;;;;;;;;;;;;;5076521;28;20027;-84
2022/01/10 01:08:37;;;;;;;;;;;;;;;;;;5076684;28;19956;-85
2022/01/10 01:11:37;;;;;;;;;;;;;;;;;;5076700;28;20014;-85
2022/01/10 01:14:08;;;;;;;;;;;;;;;;;;5076509;28;19969;-85
2022/01/10 01:16:56;;;;;;;;;;;;;;;;;;5076267;28;19951;-84
2022/01/10 01:24:42;;;;;;;;;;;;;;;;;;5076301;28;19977;-85
2022/01/10 01:27:09;;;;;;;;;;;;;;;;;;5076335;28;20003;-84
2022/01/10 01:29:36;;;;;;;;;;;;;;;;;;5076376;28;20040;-84
2022/01/10 01:32:03;;;;;;;;;;;;;;;;;;5076304;28;19993;-85
2022/01/10 01:34:30;;;;;;;;;;;;;;;;;;5076130;28;19975;-84
2022/01/10 01:36:57;;;;;;;;;;;;;;;;;;5076065;28;20025;-85
2022/01/10 01:39:25;;;;;;;;;;;;;;;;;;5075947;28;20043;-85
2022/01/10 01:41:54;;;;;;;;;;;;;;;;;;5075893;28;20307;-85
2022/01/10 01:44:21;;;;;;;;;;;;;;;;;;5075826;28;20396;-85
2022/01/10 01:46:48;;;;;;;;;;;;;;;;;;5075811;28;20010;-85
2022/01/10 01:49:15;;;;;;;;;;;;;;;;;;5075654;28;20018;-85
2022/01/10 01:51:42;;;;;;;;;;;;;;;;;;5075738;28;20443;-85
2022/01/10 01:54:09;;;;;;;;;;;;;;;;;;5075489;28;20056;-85
2022/01/10 01:56:36;;;;;;;;;;;;;;;;;;5075631;28;19951;-85
2022/01/10 01:59:03;;;;;;;;;;;;;;;;;;5075687;28;20050;-84
2022/01/10 02:01:30;;;;;;;;;;;;;;;;;;5075605;28;20000;-85
2022/01/10 02:03:57;;;;;;;;;;;;;;;;;;5075727;28;19996;-85
2022/01/10 02:06:24;;;;;;;;;;;;;;;;;;5075418;28;20045;-85
2022/01/10 02:08:51;;;;;;;;;;;;;;;;;;5075385;28;20388;-85
2022/01/10 02:11:18;;;;;;;;;;;;;;;;;;5075484;28;20043;-85
2022/01/10 02:13:45;;;;;;;;;;;;;;;;;;5075669;28;20023;-85
2022/01/10 02:16:17;;;;;;;;;;;;;;;;;;5075337;28;20065;-85
2022/01/10 02:18:44;;;;;;;;;;;;;;;;;;5075243;28;20408;-85
2022/01/10 02:21:11;;;;;;;;;;;;;;;;;;5075031;28;20427;-85
2022/01/10 02:23:38;;;;;;;;;;;;;;;;;;5075364;28;19976;-85
2022/01/10 02:26:05;;;;;;;;;;;;;;;;;;5075075;28;20058;-84
2022/01/10 02:28:33;;;;;;;;;;;;;;;;;;5075238;28;20052;-85
2022/01/10 02:31:00;;;;;;;;;;;;;;;;;;5074902;28;20054;-85
2022/01/10 02:33:27;;;;;;;;;;;;;;;;;;5075116;28;19977;-85
2022/01/10 02:36:02;;;;;;;;;;;;;;;;;;5074696;28;19982;-85
2022/01/10 02:38:29;;;;;;;;;;;;;;;;;;5075005;28;20017;-85
2022/01/10 02:40:57;;;;;;;;;;;;;;;;;;5074945;28;19952;-85
2022/01/10 02:43:24;;;;;;;;;;;;;;;;;;5075064;28;19963;-85
2022/01/10 02:45:54;;;;;;;;;;;;;;;;;;5074951;28;20024;-85
2022/01/10 02:48:21;;;;;;;;;;;;;;;;;;5074364;28;19961;-85
2022/01/10 02:50:48;;;;;;;;;;;;;;;;;;5074781;28;20037;-85
2022/01/10 02:53:15;;;;;;;;;;;;;;;;;;5074834;28;20037;-85
2022/01/10 02:55:42;;;;;;;;;;;;;;;;;;5074595;28;20472;-85
2022/01/10 02:58:09;;;;;;;;;;;;;;;;;;5074297;28;19997;-85
2022/01/10 03:00:36;;;;;;;;;;;;;;;;;;5074322;28;19991;-85
2022/01/10 03:03:06;;;;;;;;;;;;;;;;;;5074311;28;20388;-85
2022/01/10 03:05:33;;;;;;;;;;;;;;;;;;5074617;28;19957;-85
2022/01/10 03:08:02;;;;;;;;;;;;;;;;;;5074385;28;19957;-85
2022/01/10 03:10:29;;;;;;;;;;;;;;;;;;5073767;28;20404;-85
2022/01/10 03:12:56;;;;;;;;;;;;;;;;;;5074079;28;20033;-85
2022/01/10 03:15:23;;;;;;;;;;;;;;;;;;5073949;28;20049;-85
2022/01/10 03:17:50;;;;;;;;;;;;;;;;;;5074193;28;20037;-85
2022/01/10 03:20:17;;;;;;;;;;;;;;;;;;5074114;28;20037;-85
2022/01/10 03:22:44;;;;;;;;;;;;;;;;;;5074052;28;19999;-85
2022/01/10 03:25:11;;;;;;;;;;;;;;;;;;5074145;28;20030;-85
2022/01/10 03:27:38;;;;;;;;;;;;;;;;;;5074120;28;20045;-85
2022/01/10 03:30:05;;;;;;;;;;;;;;;;;;5073784;28;20039;-86
2022/01/10 03:32:32;;;;;;;;;;;;;;;;;;5074007;28;20024;-85
2022/01/10 03:34:59;;;;;;;;;;;;;;;;;;5073876;28;20014;-85
2022/01/10 03:37:26;;;;;;;;;;;;;;;;;;5073729;28;20033;-85
2022/01/10 03:39:53;;;;;;;;;;;;;;;;;;5073860;28;20102;-85
2022/01/10 03:42:20;;;;;;;;;;;;;;;;;;5073701;28;19993;-85
2022/01/10 03:44:47;;;;;;;;;;;;;;;;;;5073763;28;19985;-85
2022/01/10 03:47:16;;;;;;;;;;;;;;;;;;5074126;28;20013;-85
2022/01/10 03:49:43;;;;;;;;;;;;;;;;;;5074031;28;19970;-85
2022/01/10 03:52:11;;;;;;;;;;;;;;;;;;5073827;28;19984;-85
2022/01/10 03:54:38;;;;;;;;;;;;;;;;;;5073673;28;20344;-85
2022/01/10 03:57:05;;;;;;;;;;;;;;;;;;5073476;28;20045;-85
2022/01/10 03:59:32;;;;;;;;;;;;;;;;;;5073683;28;20437;-86
2022/01/10 04:01:59;;;;;;;;;;;;;;;;;;5073816;28;20039;-86
2022/01/10 04:04:26;;;;;;;;;;;;;;;;;;5073720;28;20368;-85
2022/01/10 04:06:53;;;;;;;;;;;;;;;;;;5073555;28;19995;-85
2022/01/10 04:09:21;;;;;;;;;;;;;;;;;;5073477;28;19947;-85
2022/01/10 04:11:48;;;;;;;;;;;;;;;;;;5073645;28;20406;-86
2022/01/10 04:14:15;;;;;;;;;;;;;;;;;;5073662;28;20079;-85
2022/01/10 04:16:42;;;;;;;;;;;;;;;;;;5073591;28;20072;-85
2022/01/10 04:19:09;;;;;;;;;;;;;;;;;;5073583;28;19981;-85
2022/01/10 04:21:36;;;;;;;;;;;;;;;;;;5073279;28;20004;-85
2022/01/10 04:24:03;;;;;;;;;;;;;;;;;;5075814;28;19984;-85
2022/01/10 04:26:30;;;;;;;;;;;;;;;;;;5077631;28;20029;-86
2022/01/10 04:28:57;;;;;;;;;;;;;;;;;;5077349;28;20048;-85
2022/01/10 04:31:25;;;;;;;;;;;;;;;;;;5077509;28;20056;-84
2022/01/10 04:33:52;;;;;;;;;;;;;;;;;;5077407;28;20040;-84
2022/01/10 04:36:19;;;;;;;;;;;;;;;;;;5077069;28;20061;-84
2022/01/10 04:38:46;;;;;;;;;;;;;;;;;;5077053;28;20049;-85
2022/01/10 04:41:13;;;;;;;;;;;;;;;;;;5077186;28;20452;-85
2022/01/10 04:43:40;;;;;;;;;;;;;;;;;;5077022;28;19989;-85
2022/01/10 04:46:07;;;;;;;;;;;;;;;;;;5076949;28;19987;-84
2022/01/10 04:48:34;;;;;;;;;;;;;;;;;;5076867;28;20072;-85
2022/01/10 04:53:42;;;;;;;;;;;;;;;;;;5074755;28;20393;-85
2022/01/10 04:56:09;;;;;;;;;;;;;;;;;;5076578;28;20068;-85
2022/01/10 04:58:36;;;;;;;;;;;;;;;;;;5076680;28;20036;-85
2022/01/10 05:01:03;;;;;;;;;;;;;;;;;;5076714;28;19985;-85
2022/01/10 05:03:30;;;;;;;;;;;;;;;;;;5076862;28;19956;-85
2022/01/10 05:05:57;;;;;;;;;;;;;;;;;;5076791;28;20353;-85
2022/01/10 05:08:24;;;;;;;;;;;;;;;;;;5076847;28;20051;-84
2022/01/10 05:10:51;;;;;;;;;;;;;;;;;;5076782;28;20028;-85
2022/01/10 05:13:20;;;;;;;;;;;;;;;;;;5076506;28;20003;-85
2022/01/10 05:15:47;;;;;;;;;;;;;;;;;;5076262;28;19960;-85
2022/01/10 05:18:14;;;;;;;;;;;;;;;;;;5076314;28;20041;-85
2022/01/10 05:20:41;;;;;;;;;;;;;;;;;;5076524;28;19952;-84
2022/01/10 05:23:08;;;;;;;;;;;;;;;;;;5076301;28;19990;-84
2022/01/10 05:25:39;;;;;;;;;;;;;;;;;;5076345;28;20000;-85
2022/01/10 05:28:06;;;;;;;;;;;;;;;;;;5076328;28;19950;-85
2022/01/10 05:30:33;;;;;;;;;;;;;;;;;;5076142;28;19951;-85
2022/01/10 05:33:00;;;;;;;;;;;;;;;;;;5076111;28;19996;-85
2022/01/10 05:35:27;;;;;;;;;;;;;;;;;;5075650;28;20011;-84
2022/01/10 05:37:54;;;;;;;;;;;;;;;;;;5076184;28;20047;-85
2022/01/10 05:40:21;;;;;;;;;;;;;;;;;;5076042;28;20313;-85
2022/01/10 05:42:48;;;;;;;;;;;;;;;;;;5076106;28;20054;-87
2022/01/10 05:45:15;;;;;;;;;;;;;;;;;;5076014;28;19999;-86
2022/01/10 05:47:45;;;;;;;;;;;;;;;;;;5076270;28;20151;-85
2022/01/10 05:50:12;;;;;;;;;;;;;;;;;;5075491;28;19969;-85
2022/01/10 05:52:39;;;;;;;;;;;;;;;;;;5076039;28;19991;-85
2022/01/10 05:55:06;;;;;;;;;;;;;;;;;;5075852;28;19956;-85
2022/01/10 05:57:33;;;;;;;;;;;;;;;;;;5075760;28;20378;-85
2022/01/10 06:00:00;;;;;;;;;;;;;;;;;;5075576;28;19995;-85
2022/01/10 06:02:27;;;;;;;;;;;;;;;;;;5075863;28;20036;-85
2022/01/10 06:04:54;;;;;;;;;;;;;;;;;;5075702;28;20468;-85
2022/01/10 06:07:21;;;;;;;;;;;;;;;;;;5075593;28;20284;-85
2022/01/10 06:09:48;;;;;;;;;;;;;;;;;;5075671;28;19987;-85
2022/01/10 06:12:15;;;;;;;;;;;;;;;;;;5075380;28;19956;-85
2022/01/10 06:14:42;;;;;;;;;;;;;;;;;;5075368;28;20011;-85
2022/01/10 06:17:09;;;;;;;;;;;;;;;;;;5075311;28;20050;-85
2022/01/10 06:19:36;;;;;;;;;;;;;;;;;;5075606;28;19998;-85
2022/01/10 06:22:03;;;;;;;;;;;;;;;;;;5075115;28;20009;-85
2022/01/10 06:24:30;;;;;;;;;;;;;;;;;;5075430;28;20379;-85
2022/01/10 06:26:58;;;;;;;;;;;;;;;;;;5075219;28;20451;-85
2022/01/10 06:29:25;;;;;;;;;;;;;;;;;;5075272;28;19950;-85
2022/01/10 06:31:52;;;;;;;;;;;;;;;;;;5074968;28;19993;-85
2022/01/10 06:34:19;;;;;;;;;;;;;;;;;;5074877;28;20036;-85
2022/01/10 06:36:46;;;;;;;;;;;;;;;;;;5074650;28;19977;-85
2022/01/10 06:39:13;;;;;;;;;;;;;;;;;;5074919;28;20046;-85
2022/01/10 06:41:40;;;;;;;;;;;;;;;;;;5074622;28;20008;-85
2022/01/10 06:44:07;;;;;;;;;;;;;;;;;;5074910;28;20053;-85
2022/01/10 06:46:34;;;;;;;;;;;;;;;;;;5073972;28;20003;-85
2022/01/10 06:49:01;;;;;;;;;;;;;;;;;;5074242;28;20000;-85
2022/01/10 06:51:28;;;;;;;;;;;;;;;;;;5074719;28;19989;-85
2022/01/10 06:53:55;;;;;;;;;;;;;;;;;;5074575;28;20041;-85
2022/01/10 06:56:22;;;;;;;;;;;;;;;;;;5074494;28;20072;-85
2022/01/10 06:58:49;;;;;;;;;;;;;;;;;;5074427;28;20445;-85
2022/01/10 07:01:18;;;;;;;;;;;;;;;;;;5074302;28;19949;-85
2022/01/10 07:03:45;;;;;;;;;;;;;;;;;;5074577;28;19951;-85
2022/01/10 07:06:12;;;;;;;;;;;;;;;;;;5074203;28;20384;-86
2022/01/10 07:08:39;;;;;;;;;;;;;;;;;;5074158;28;20000;-85
2022/01/10 07:11:06;;;;;;;;;;;;;;;;;;5074412;28;19958;-85
2022/01/10 07:13:33;;;;;;;;;;;;;;;;;;5074561;28;20054;-85
2022/01/10 07:16:00;;;;;;;;;;;;;;;;;;5074044;28;20020;-85
2022/01/10 07:18:27;;;;;;;;;;;;;;;;;;5074215;28;19993;-85
2022/01/10 07:20:54;;;;;;;;;;;;;;;;;;5074078;28;20004;-86
2022/01/10 07:23:22;;;;;;;;;;;;;;;;;;5073948;28;19993;-86
2022/01/10 07:25:49;;;;;;;;;;;;;;;;;;5074356;28;19947;-85
2022/01/10 07:28:16;;;;;;;;;;;;;;;;;;5073947;28;20052;-85
2022/01/10 07:30:43;;;;;;;;;;;;;;;;;;5073880;28;19987;-86
2022/01/10 07:33:10;;;;;;;;;;;;;;;;;;5073919;28;20045;-85
2022/01/10 07:35:37;;;;;;;;;;;;;;;;;;5073683;28;19980;-86
2022/01/10 07:38:04;;;;;;;;;;;;;;;;;;5073720;28;20292;-85
2022/01/10 07:40:32;;;;;;;;;;;;;;;;;;5073844;28;20018;-85
2022/01/10 07:42:59;;;;;;;;;;;;;;;;;;5073694;28;19985;-86
2022/01/10 07:45:26;;;;;;;;;;;;;;;;;;5073841;28;19995;-86
2022/01/10 07:47:53;;;;;;;;;;;;;;;;;;5073837;28;20333;-86
2022/01/10 07:50:20;;;;;;;;;;;;;;;;;;5073789;28;20505;-86
2022/01/10 07:52:47;;;;;;;;;;;;;;;;;;5074002;28;20009;-86
2022/01/10 07:55:14;;;;;;;;;;;;;;;;;;5073699;28;20041;-86
2022/01/10 07:57:41;;;;;;;;;;;;;;;;;;5073415;28;20050;-86
2022/01/10 08:00:08;;;;;;;;;;;;;;;;;;5073648;28;20003;-86
2022/01/10 08:02:35;;;;;;;;;;;;;;;;;;5073537;28;19954;-86
2022/01/10 08:05:02;;;;;;;;;;;;;;;;;;5073644;28;19996;-86
2022/01/10 08:07:29;;;;;;;;;;;;;;;;;;5074132;28;20003;-86
2022/01/10 08:09:56;;;;;;;;;;;;;;;;;;5073665;28;20433;-86
2022/01/10 08:12:23;;;;;;;;;;;;;;;;;;5073448;28;20038;-87
2022/01/10 08:14:50;;;;;;;;;;;;;;;;;;5073346;28;19993;-86
2022/01/10 08:17:17;;;;;;;;;;;;;;;;;;5073287;28;20536;-87
2022/01/10 08:19:44;;;;;;;;;;;;;;;;;;5073377;28;19998;-86
2022/01/10 08:22:12;;;;;;;;;;;;;;;;;;5073551;28;20081;-86
2022/01/10 08:24:39;;;;;;;;;;;;;;;;;;5073024;28;19999;-86
2022/01/10 08:27:06;;;;;;;;;;;;;;;;;;5073414;28;20037;-86
2022/01/10 08:29:33;;;;;;;;;;;;;;;;;;5073131;28;20065;-85
2022/01/10 08:32:00;;;;;;;;;;;;;;;;;;5073252;28;19948;-86
2022/01/10 08:34:27;;;;;;;;;;;;;;;;;;5073247;28;19952;-86
2022/01/10 08:36:56;;;;;;;;;;;;;;;;;;5073209;28;20060;-86
2022/01/10 08:39:23;;;;;;;;;;;;;;;;;;5073481;28;20044;-86
2022/01/10 08:41:50;;;;;;;;;;;;;;;;;;5073258;28;20017;-86
2022/01/10 08:44:17;;;;;;;;;;;;;;;;;;5073087;28;20051;-86
2022/01/10 08:46:44;;;;;;;;;;;;;;;;;;5073060;28;20394;-86
2022/01/10 08:49:12;;;;;;;;;;;;;;;;;;5072803;28;20027;-86
2022/01/10 08:51:39;;;;;;;;;;;;;;;;;;5073227;28;19954;-86
2022/01/10 08:54:06;;;;;;;;;;;;;;;;;;5073131;28;20062;-86
2022/01/10 08:56:33;;;;;;;;;;;;;;;;;;5073029;28;20387;-86
2022/01/10 08:59:00;;;;;;;;;;;;;;;;;;5072856;28;19992;-87
2022/01/10 09:01:27;;;;;;;;;;;;;;;;;;5073039;28;20024;-86
2022/01/10 09:03:54;;;;;;;;;;;;;;;;;;5073219;28;19951;-86
2022/01/10 09:06:21;;;;;;;;;;;;;;;;;;5075011;28;20055;-86
2022/01/10 09:08:48;;;;;;;;;;;;;;;;;;5082034;28;19990;-87
2022/01/10 09:11:15;;;;;;;;;;;;;;;;;;5079455;28;20048;-86
2022/01/10 09:13:42;;;;;;;;;;;;;;;;;;5076598;28;19978;-86
2022/01/10 09:16:11;;;;;;;;;;;;;;;;;;5076316;28;20067;-86
2022/01/10 09:18:38;;;;;;;;;;;;;;;;;;5077134;28;19953;-86
2022/01/10 09:21:05;;;;;;;;;;;;;;;;;;5077198;28;20003;-86
2022/01/10 09:23:32;;;;;;;;;;;;;;;;;;5076884;28;20014;-85
2022/01/10 09:25:59;;;;;;;;;;;;;;;;;;5077228;28;19997;-86
2022/01/10 09:28:26;;;;;;;;;;;;;;;;;;5076890;28;19978;-86
2022/01/10 09:30:53;;;;;;;;;;;;;;;;;;5076714;28;19946;-85
2022/01/10 09:33:21;;;;;;;;;;;;;;;;;;5076926;28;19992;-85
2022/01/10 09:35:48;;;;;;;;;;;;;;;;;;5076565;28;20484;-86
2022/01/10 09:38:15;;;;;;;;;;;;;;;;;;5076588;28;20059;-86
2022/01/10 09:40:42;;;;;;;;;;;;;;;;;;5076298;28;20417;-87
2022/01/10 09:43:09;;;;;;;;;;;;;;;;;;5076503;28;20045;-86
2022/01/10 09:45:36;;;;;;;;;;;;;;;;;;5076152;28;19991;-86
2022/01/10 09:48:03;;;;;;;;;;;;;;;;;;5076235;28;19951;-86
2022/01/10 09:50:30;;;;;;;;;;;;;;;;;;5076501;28;20427;-88
2022/01/10 09:52:57;;;;;;;;;;;;;;;;;;5076294;28;20072;-85
2022/01/10 09:55:25;;;;;;;;;;;;;;;;;;5075919;28;19984;-86
2022/01/10 09:57:52;;;;;;;;;;;;;;;;;;5076002;28;19963;-87
2022/01/10 10:00:20;;;;;;;;;;;;;;;;;;5076416;28;19959;-86
2022/01/10 10:02:47;;;;;;;;;;;;;;;;;;5076160;28;20000;-87
2022/01/10 10:05:14;;;;;;;;;;;;;;;;;;5076109;28;20000;-86
2022/01/10 10:07:41;;;;;;;;;;;;;;;;;;5076060;28;19952;-87
2022/01/10 10:10:11;;;;;;;;;;;;;;;;;;5076133;28;19982;-87
2022/01/10 10:12:38;;;;;;;;;;;;;;;;;;5076012;28;20017;-87
2022/01/10 10:15:06;;;;;;;;;;;;;;;;;;5075893;28;20024;-86
2022/01/10 10:17:34;;;;;;;;;;;;;;;;;;5075381;28;19966;-87
2022/01/10 10:20:01;;;;;;;;;;;;;;;;;;5076139;28;20409;-87
2022/01/10 10:22:28;;;;;;;;;;;;;;;;;;5075463;28;20060;-87
2022/01/10 10:24:55;;;;;;;;;;;;;;;;;;5076992;28;19995;-87
2022/01/10 10:27:23;;;;;;;;;;;;;;;;;;5075873;28;19997;-87
2022/01/10 10:29:50;;;;;;;;;;;;;;;;;;5075647;28;19954;-86
2022/01/10 10:32:17;;;;;;;;;;;;;;;;;;5075345;28;20026;-87
2022/01/10 10:34:44;;;;;;;;;;;;;;;;;;5075833;28;20004;-86
2022/01/10 10:37:11;;;;;;;;;;;;;;;;;;5075430;28;20346;-87
2022/01/10 10:39:38;;;;;;;;;;;;;;;;;;5075781;28;20039;-85
2022/01/10 10:42:05;;;;;;;;;;;;;;;;;;5075868;28;20025;-86
2022/01/10 10:44:32;;;;;;;;;;;;;;;;;;5075451;28;20034;-86
2022/01/10 10:46:59;;;;;;;;;;;;;;;;;;5075447;28;20001;-87
2022/01/10 10:49:31;;;;;;;;;;;;;;;;;;5075554;28;19976;-87
2022/01/10 10:51:58;;;;;;;;;;;;;;;;;;5075018;28;20429;-87
2022/01/10 10:54:25;;;;;;;;;;;;;;;;;;5075311;28;20039;-86
2022/01/10 10:56:53;;;;;;;;;;;;;;;;;;5075114;28;20049;-87
2022/01/10 10:59:20;;;;;;;;;;;;;;;;;;5075255;28;19958;-87
2022/01/10 11:01:48;;;;;;;;;;;;;;;;;;5075122;28;19983;-87
2022/01/10 11:04:15;;;;;;;;;;;;;;;;;;5075168;28;20441;-87
2022/01/10 11:06:42;;;;;;;;;;;;;;;;;;5074937;28;20044;-87
2022/01/10 11:09:11;;;;;;;;;;;;;;;;;;5075400;28;20043;-87
2022/01/10 11:11:38;;;;;;;;;;;;;;;;;;5074687;28;19997;-87
2022/01/10 11:14:05;;;;;;;;;;;;;;;;;;5074280;28;20051;-87
2022/01/10 11:16:33;;;;;;;;;;;;;;;;;;5073970;28;20006;-87
2022/01/10 11:19:00;;;;;;;;;;;;;;;;;;5074499;28;19953;-87
2022/01/10 11:21:27;;;;;;;;;;;;;;;;;;5074059;28;20000;-87
2022/01/10 11:23:55;;;;;;;;;;;;;;;;;;5074147;28;19989;-87
2022/01/10 11:26:22;;;;;;;;;;;;;;;;;;5074260;28;19955;-87
2022/01/10 11:28:49;;;;;;;;;;;;;;;;;;5073917;28;20003;-87
2022/01/10 11:31:16;;;;;;;;;;;;;;;;;;5074414;28;20051;-87
2022/01/10 11:33:43;;;;;;;;;;;;;;;;;;5074427;28;20310;-87
2022/01/10 11:36:10;;;;;;;;;;;;;;;;;;5074449;28;20000;-87
2022/01/10 11:38:37;;;;;;;;;;;;;;;;;;5074272;28;20015;-87
2022/01/10 11:41:04;;;;;;;;;;;;;;;;;;5074186;28;20052;-87
2022/01/10 11:43:31;;;;;;;;;;;;;;;;;;5074052;28;20464;-87
2022/01/10 11:45:58;;;;;;;;;;;;;;;;;;5074391;28;20068;-87
2022/01/10 11:48:25;;;;;;;;;;;;;;;;;;5073886;28;20585;-87
2022/01/10 11:50:52;;;;;;;;;;;;;;;;;;5074260;28;20038;-88
2022/01/10 11:53:19;;;;;;;;;;;;;;;;;;5074066;28;20076;-87
2022/01/10 11:55:46;;;;;;;;;;;;;;;;;;5075545;28;20001;-87
2022/01/10 11:58:13;;;;;;;;;;;;;;;;;;5074121;28;20051;-87
2022/01/10 12:00:40;;;;;;;;;;;;;;;;;;5074044;28;20040;-88
2022/01/10 12:03:07;;;;;;;;;;;;;;;;;;5074131;28;20040;-88
2022/01/10 12:05:34;;;;;;;;;;;;;;;;;;5073934;28;20040;-87
2022/01/10 12:08:01;;;;;;;;;;;;;;;;;;5073642;28;20414;-87
2022/01/10 12:10:28;;;;;;;;;;;;;;;;;;5073795;28;20042;-87
2022/01/10 12:12:55;;;;;;;;;;;;;;;;;;5073764;28;20358;-87
2022/01/10 12:15:22;;;;;;;;;;;;;;;;;;5073681;28;20014;-87
2022/01/10 12:17:49;;;;;;;;;;;;;;;;;;5073479;28;20016;-87
2022/01/10 12:20:16;;;;;;;;;;;;;;;;;;5073665;28;20033;-87
2022/01/10 12:22:43;;;;;;;;;;;;;;;;;;5073679;28;20043;-86
2022/01/10 12:25:10;;;;;;;;;;;;;;;;;;5073186;28;20039;-88
2022/01/10 12:27:37;;;;;;;;;;;;;;;;;;5073505;28;20380;-87
2022/01/10 12:30:04;;;;;;;;;;;;;;;;;;5073400;28;20042;-88
2022/01/10 12:32:31;;;;;;;;;;;;;;;;;;5073419;28;20037;-87
2022/01/10 12:34:58;;;;;;;;;;;;;;;;;;5074483;28;19996;-87
2022/01/10 12:37:25;;;;;;;;;;;;;;;;;;5073183;28;20051;-87
2022/01/10 12:39:52;;;;;;;;;;;;;;;;;;5073091;28;20039;-87
2022/01/10 12:42:19;;;;;;;;;;;;;;;;;;5073727;28;19985;-87
2022/01/10 12:44:47;;;;;;;;;;;;;;;;;;5075096;28;19950;-86
2022/01/10 12:47:14;;;;;;;;;;;;;;;;;;5077258;28;19932;-87
2022/01/10 12:49:44;;;;;;;;;;;;;;;;;;5076989;28;20061;-87
2022/01/10 12:52:11;;;;;;;;;;;;;;;;;;5077199;28;19951;-86
2022/01/10 12:54:38;;;;;;;;;;;;;;;;;;5077249;28;20057;-86
2022/01/10 12:57:06;;;;;;;;;;;;;;;;;;5076923;28;19953;-86
2022/01/10 12:59:33;;;;;;;;;;;;;;;;;;5077478;28;20391;-87
2022/01/10 13:02:00;;;;;;;;;;;;;;;;;;5076965;28;20040;-87
2022/01/10 13:04:27;;;;;;;;;;;;;;;;;;5076810;28;20349;-87
2022/01/10 13:06:54;;;;;;;;;;;;;;;;;;5077511;28;20050;-87
2022/01/10 13:09:21;;;;;;;;;;;;;;;;;;5076715;28;20045;-88
2022/01/10 13:11:50;;;;;;;;;;;;;;;;;;5077191;28;20048;-87
2022/01/10 13:14:17;;;;;;;;;;;;;;;;;;5077174;28;20430;-87
2022/01/10 13:16:44;;;;;;;;;;;;;;;;;;5076966;28;20038;-91
2022/01/10 13:19:11;;;;;;;;;;;;;;;;;;5076625;28;20006;-86
2022/01/10 13:21:41;;;;;;;;;;;;;;;;;;5076948;28;20045;-86
2022/01/10 13:24:09;;;;;;;;;;;;;;;;;;5076764;28;20399;-87
2022/01/10 13:26:37;;;;;;;;;;;;;;;;;;5076487;28;19959;-87
2022/01/10 13:29:05;;;;;;;;;;;;;;;;;;5077086;28;19994;-88
2022/01/10 13:31:32;;;;;;;;;;;;;;;;;;5077982;28;19956;-89
2022/01/10 13:33:59;;;;;;;;;;;;;;;;;;5077744;28;20034;-89
2022/01/10 13:36:26;;;;;;;;;;;;;;;;;;5077572;28;19998;-88
2022/01/10 13:38:53;;;;;;;;;;;;;;;;;;5077219;28;20007;-87
2022/01/10 13:41:21;;;;;;;;;;;;;;;;;;5077479;28;20000;-87
2022/01/10 13:43:48;;;;;;;;;;;;;;;;;;5076470;28;19995;-86
2022/01/10 13:46:15;;;;;;;;;;;;;;;;;;5076074;28;19989;-86
2022/01/10 13:48:47;;;;;;;;;;;;;;;;;;5075876;28;20061;-86
2022/01/10 13:51:15;;;;;;;;;;;;;;;;;;5076433;28;20043;-87
2022/01/10 13:53:42;;;;;;;;;;;;;;;;;;5076264;28;19951;-87
2022/01/10 13:56:09;;;;;;;;;;;;;;;;;;5075656;28;20055;-87
2022/01/10 13:58:36;;;;;;;;;;;;;;;;;;5075840;28;20508;-86
2022/01/10 14:01:03;;;;;;;;;;;;;;;;;;5075887;28;19952;-87
2022/01/10 14:03:30;;;;;;;;;;;;;;;;;;5076429;28;20005;-87
2022/01/10 14:05:57;;;;;;;;;;;;;;;;;;5076260;28;20507;-86
2022/01/10 14:08:24;;;;;;;;;;;;;;;;;;5076260;28;20043;-86
2022/01/10 14:10:51;;;;;;;;;;;;;;;;;;5076219;28;20035;-86
2022/01/10 14:13:18;;;;;;;;;;;;;;;;;;5076504;28;19992;-86
2022/01/10 14:15:45;;;;;;;;;;;;;;;;;;5076068;28;20346;-87
2022/01/10 14:18:12;;;;;;;;;;;;;;;;;;5076074;28;20053;-86
2022/01/10 14:20:39;;;;;;;;;;;;;;;;;;5075800;28;20483;-87
2022/01/10 14:23:06;;;;;;;;;;;;;;;;;;5076053;28;20029;-86
2022/01/10 14:25:33;;;;;;;;;;;;;;;;;;5075549;28;20008;-86
2022/01/10 14:28:00;;;;;;;;;;;;;;;;;;5075732;28;19989;-86
2022/01/10 14:30:27;;;;;;;;;;;;;;;;;;5075945;28;20053;-86
2022/01/10 14:32:54;;;;;;;;;;;;;;;;;;5075913;28;20392;-86
2022/01/10 14:35:21;;;;;;;;;;;;;;;;;;5076010;28;20004;-86
2022/01/10 14:37:48;;;;;;;;;;;;;;;;;;5075706;28;20050;-86
2022/01/10 14:40:15;;;;;;;;;;;;;;;;;;5075565;28;19953;-87
2022/01/10 14:42:42;;;;;;;;;;;;;;;;;;5075117;28;20400;-86
2022/01/10 14:45:10;;;;;;;;;;;;;;;;;;5075535;28;20005;-86
2022/01/10 14:47:37;;;;;;;;;;;;;;;;;;5075290;28;19951;-86
2022/01/10 14:50:04;;;;;;;;;;;;;;;;;;5075322;28;20058;-86
2022/01/10 14:52:31;;;;;;;;;;;;;;;;;;5075070;28;20057;-86
2022/01/10 14:54:58;;;;;;;;;;;;;;;;;;5075184;28;20046;-86
2022/01/10 14:57:25;;;;;;;;;;;;;;;;;;5074673;28;19950;-86
2022/01/10 14:59:52;;;;;;;;;;;;;;;;;;5075010;28;20039;-86
2022/01/10 15:02:19;;;;;;;;;;;;;;;;;;5075010;28;19957;-86
2022/01/10 15:04:46;;;;;;;;;;;;;;;;;;5074767;28;20066;-86
2022/01/10 15:07:13;;;;;;;;;;;;;;;;;;5074534;28;20004;-86
2022/01/10 15:09:40;;;;;;;;;;;;;;;;;;5074504;28;20377;-86
2022/01/10 15:12:07;;;;;;;;;;;;;;;;;;5074460;28;19952;-86
2022/01/10 15:14:34;;;;;;;;;;;;;;;;;;5074641;28;20003;-86
2022/01/10 15:17:01;;;;;;;;;;;;;;;;;;5074257;28;20520;-86
2022/01/10 15:19:28;;;;;;;;;;;;;;;;;;5074115;28;20059;-86
2022/01/10 15:21:55;;;;;;;;;;;;;;;;;;5074401;28;20002;-86
2022/01/10 15:24:22;;;;;;;;;;;;;;;;;;5074793;28;20380;-87
2022/01/10 15:26:50;;;;;;;;;;;;;;;;;;5074333;28;20055;-86
2022/01/10 15:29:17;;;;;;;;;;;;;;;;;;5074453;28;19949;-86
2022/01/10 15:31:44;;;;;;;;;;;;;;;;;;5074096;28;19954;-86
2022/01/10 15:34:11;;;;;;;;;;;;;;;;;;5073830;28;20002;-86
2022/01/10 15:36:38;;;;;;;;;;;;;;;;;;5074042;28;19982;-86
2022/01/10 15:39:05;;;;;;;;;;;;;;;;;;5073739;28;20051;-86
2022/01/10 15:41:32;;;;;;;;;;;;;;;;;;5073721;28;20493;-86
2022/01/10 15:44:00;;;;;;;;;;;;;;;;;;5074014;28;20030;-86
2022/01/10 15:46:27;;;;;;;;;;;;;;;;;;5073767;28;19954;-86
2022/01/10 15:48:54;;;;;;;;;;;;;;;;;;5073493;28;20065;-86
2022/01/10 15:51:21;;;;;;;;;;;;;;;;;;5074514;28;20036;-89
2022/01/10 15:53:48;;;;;;;;;;;;;;;;;;5075083;28;20050;-88
2022/01/10 15:56:15;;;;;;;;;;;;;;;;;;5074817;28;20389;-88
2022/01/10 15:58:42;;;;;;;;;;;;;;;;;;5075941;28;20066;-88
2022/01/10 16:01:10;;;;;;;;;;;;;;;;;;5076487;28;20351;-89
2022/01/10 16:03:37;;;;;;;;;;;;;;;;;;5073140;28;19945;-88
2022/01/10 16:06:05;;;;;;;;;;;;;;;;;;5072600;28;20477;-88
2022/01/10 16:08:34;;;;;;;;;;;;;;;;;;5072833;28;19983;-88
2022/01/10 16:11:01;;;;;;;;;;;;;;;;;;5072761;28;19945;-88
2022/01/10 16:13:28;;;;;;;;;;;;;;;;;;5072756;28;20475;-88
2022/01/10 16:15:55;;;;;;;;;;;;;;;;;;5072912;28;19937;-88
2022/01/10 16:18:23;;;;;;;;;;;;;;;;;;5073870;28;20056;-88
2022/01/10 16:20:50;;;;;;;;;;;;;;;;;;5077009;28;19984;-89
2022/01/10 16:23:17;;;;;;;;;;;;;;;;;;5076663;28;20377;-88
2022/01/10 16:25:44;;;;;;;;;;;;;;;;;;5076807;28;20068;-88
2022/01/10 16:28:11;;;;;;;;;;;;;;;;;;5077038;28;19982;-86
2022/01/10 16:30:43;;;;;;;;;;;;;;;;;;5078340;28;20384;-89
2022/01/10 16:33:10;;;;;;;;;;;;;;;;;;5076862;28;19949;-89
2022/01/10 16:35:37;;;;;;;;;;;;;;;;;;5077747;28;20012;-88
2022/01/10 16:38:04;;;;;;;;;;;;;;;;;;5077573;28;20421;-87
2022/01/10 16:40:33;;;;;;;;;;;;;;;;;;5077427;28;20424;-88
2022/01/10 16:43:00;;;;;;;;;;;;;;;;;;5077591;28;20452;-88
2022/01/10 16:45:27;;;;;;;;;;;;;;;;;;5077569;28;20050;-88
2022/01/10 16:47:55;;;;;;;;;;;;;;;;;;5077087;28;20402;-88
2022/01/10 16:50:22;;;;;;;;;;;;;;;;;;5077058;28;20018;-88
2022/01/10 16:52:49;;;;;;;;;;;;;;;;;;5077091;28;19971;-88
2022/01/10 16:55:16;;;;;;;;;;;;;;;;;;5076498;28;20389;-89